sensor_id;sensor_type;location;lat;lon;timestamp;temperature;humidity
6627;DHT22;3349;49.830;8.748;2023-11-19T00:01:33;8.40;99.90
6627;DHT22;3349;49.830;8.748;2023-11-19T00:03:59;8.50;99.90
6627;DHT22;3349;49.830;8.748;2023-11-19T00:06:26;8.40;99.90
6627;DHT22;3349;49.830;8.748;2023-11-19T00:08:53;8.50;99.90
6627;DHT22;3349;49.830;8.748;2023-11-19T00:11:19;8.50;99.90
6627;DHT22;3349;49.830;8.748;2023-11-19T00:13:46;8.50;99.90
6627;DHT22;3349;49.830;8.748;2023-11-19T00:16:13;8.50;99.90
6627;DHT22;3349;49.830;8.748;2023-11-19T00:18:43;8.50;99.90
6627;DHT22;3349;49.830;8.748;2023-11-19T00:21:09;8.50;99.90
6627;DHT22;3349;49.830;8.748;2023-11-19T00:23:36;8.50;99.90
6627;DHT22;3349;49.830;8.748;2023-11-19T00:26:04;8.50;99.90
6627;DHT22;3349;49.830;8.748;2023-11-19T00:28:31;8.50;99.90
6627;DHT22;3349;49.830;8.748;2023-11-19T00:30:58;8.50;99.90
6627;DHT22;3349;49.830;8.748;2023-11-19T00:33:25;8.60;99.90
6627;DHT22;3349;49.830;8.748;2023-11-19T00:35:53;8.60;99.90
6627;DHT22;3349;49.830;8.748;2023-11-19T00:38:20;8.60;99.90
6627;DHT22;3349;49.830;8.748;2023-11-19T00:40:47;8.60;99.90
6627;DHT22;3349;49.830;8.748;2023-11-19T00:43:14;8.60;99.90
6627;DHT22;3349;49.830;8.748;2023-11-19T00:45:40;8.60;99.90
6627;DHT22;3349;49.830;8.748;2023-11-19T00:48:08;8.60;99.90
6627;DHT22;3349;49.830;8.748;2023-11-19T00:50:35;8.70;99.90
6627;DHT22;3349;49.830;8.748;2023-11-19T00:53:03;8.70;99.90
6627;DHT22;3349;49.830;8.748;2023-11-19T00:55:29;8.70;99.90
6627;DHT22;3349;49.830;8.748;2023-11-19T00:57:56;8.70;99.90
6627;DHT22;3349;49.830;8.748;2023-11-19T01:00:23;8.70;99.90
6627;DHT22;3349;49.830;8.748;2023-11-19T01:02:52;8.70;99.90
6627;DHT22;3349;49.830;8.748;2023-11-19T01:05:20;8.70;99.90
6627;DHT22;3349;49.830;8.748;2023-11-19T01:07:50;8.80;99.90
6627;DHT22;3349;49.830;8.748;2023-11-19T01:10:20;8.80;99.90
6627;DHT22;3349;49.830;8.748;2023-11-19T01:12:47;8.70;99.90
6627;DHT22;3349;49.830;8.748;2023-11-19T01:15:13;8.70;99.90
6627;DHT22;3349;49.830;8.748;2023-11-19T01:17:40;8.80;99.90
6627;DHT22;3349;49.830;8.748;2023-11-19T01:20:07;8.80;99.90
6627;DHT22;3349;49.830;8.748;2023-11-19T01:22:37;8.80;99.90
6627;DHT22;3349;49.830;8.748;2023-11-19T01:25:05;8.80;99.90
6627;DHT22;3349;49.830;8.748;2023-11-19T01:27:33;8.90;99.90
6627;DHT22;3349;49.830;8.748;2023-11-19T01:30:01;8.90;99.90
6627;DHT22;3349;49.830;8.748;2023-11-19T01:32:29;8.90;99.90
6627;DHT22;3349;49.830;8.748;2023-11-19T01:34:55;8.90;99.90
6627;DHT22;3349;49.830;8.748;2023-11-19T01:37:22;8.90;99.90
6627;DHT22;3349;49.830;8.748;2023-11-19T01:39:48;8.90;99.90
6627;DHT22;3349;49.830;8.748;2023-11-19T01:42:15;8.90;99.90
6627;DHT22;3349;49.830;8.748;2023-11-19T01:44:55;8.90;99.90
6627;DHT22;3349;49.830;8.748;2023-11-19T01:47:24;8.90;99.90
6627;DHT22;3349;49.830;8.748;2023-11-19T01:49:51;8.90;99.90
6627;DHT22;3349;49.830;8.748;2023-11-19T01:52:18;9.00;99.90
6627;DHT22;3349;49.830;8.748;2023-11-19T01:54:45;9.00;99.90
6627;DHT22;3349;49.830;8.748;2023-11-19T01:57:12;9.00;99.90
6627;DHT22;3349;49.830;8.748;2023-11-19T01:59:40;9.00;99.90
6627;DHT22;3349;49.830;8.748;2023-11-19T02:02:08;9.00;99.90
6627;DHT22;3349;49.830;8.748;2023-11-19T02:04:35;9.00;99.90
6627;DHT22;3349;49.830;8.748;2023-11-19T02:07:03;9.00;99.90
6627;DHT22;3349;49.830;8.748;2023-11-19T02:09:30;9.00;99.90
6627;DHT22;3349;49.830;8.748;2023-11-19T02:11:57;9.00;99.90
6627;DHT22;3349;49.830;8.748;2023-11-19T02:14:25;9.10;99.90
6627;DHT22;3349;49.830;8.748;2023-11-19T02:16:52;9.10;99.90
6627;DHT22;3349;49.830;8.748;2023-11-19T02:19:20;9.10;99.90
6627;DHT22;3349;49.830;8.748;2023-11-19T02:21:47;9.10;99.90
6627;DHT22;3349;49.830;8.748;2023-11-19T02:24:14;9.10;99.90
6627;DHT22;3349;49.830;8.748;2023-11-19T02:26:49;9.10;99.90
6627;DHT22;3349;49.830;8.748;2023-11-19T02:29:20;9.10;99.90
6627;DHT22;3349;49.830;8.748;2023-11-19T02:31:47;9.10;99.90
6627;DHT22;3349;49.830;8.748;2023-11-19T02:34:14;9.10;99.90
6627;DHT22;3349;49.830;8.748;2023-11-19T02:36:41;9.10;99.90
6627;DHT22;3349;49.830;8.748;2023-11-19T02:39:08;9.10;99.90
6627;DHT22;3349;49.830;8.748;2023-11-19T02:41:37;9.10;99.90
6627;DHT22;3349;49.830;8.748;2023-11-19T02:44:05;9.20;99.90
6627;DHT22;3349;49.830;8.748;2023-11-19T02:46:33;9.30;99.90
6627;DHT22;3349;49.830;8.748;2023-11-19T02:49:00;9.30;99.90
6627;DHT22;3349;49.830;8.748;2023-11-19T02:51:27;9.30;99.90
6627;DHT22;3349;49.830;8.748;2023-11-19T02:53:55;9.30;99.90
6627;DHT22;3349;49.830;8.748;2023-11-19T02:56:22;9.30;99.90
6627;DHT22;3349;49.830;8.748;2023-11-19T02:58:52;9.40;99.90
6627;DHT22;3349;49.830;8.748;2023-11-19T03:01:22;9.40;99.90
6627;DHT22;3349;49.830;8.748;2023-11-19T03:03:56;9.40;99.90
6627;DHT22;3349;49.830;8.748;2023-11-19T03:06:23;9.40;99.90
6627;DHT22;3349;49.830;8.748;2023-11-19T03:08:50;9.40;99.90
6627;DHT22;3349;49.830;8.748;2023-11-19T03:11:17;9.40;99.90
6627;DHT22;3349;49.830;8.748;2023-11-19T03:13:44;9.40;99.90
6627;DHT22;3349;49.830;8.748;2023-11-19T03:16:12;9.40;99.90
6627;DHT22;3349;49.830;8.748;2023-11-19T03:18:39;9.40;99.90
6627;DHT22;3349;49.830;8.748;2023-11-19T03:21:07;9.40;99.90
6627;DHT22;3349;49.830;8.748;2023-11-19T03:23:34;9.50;99.90
6627;DHT22;3349;49.830;8.748;2023-11-19T03:26:01;9.50;99.90
6627;DHT22;3349;49.830;8.748;2023-11-19T03:28:30;9.50;99.90
6627;DHT22;3349;49.830;8.748;2023-11-19T03:30:57;9.50;99.90
6627;DHT22;3349;49.830;8.748;2023-11-19T03:33:24;9.50;99.90
6627;DHT22;3349;49.830;8.748;2023-11-19T03:35:51;9.60;99.90
6627;DHT22;3349;49.830;8.748;2023-11-19T03:38:19;9.60;99.90
6627;DHT22;3349;49.830;8.748;2023-11-19T03:40:46;9.60;99.90
6627;DHT22;3349;49.830;8.748;2023-11-19T03:43:12;9.60;99.90
6627;DHT22;3349;49.830;8.748;2023-11-19T03:45:39;9.60;99.90
6627;DHT22;3349;49.830;8.748;2023-11-19T03:48:06;9.60;99.90
6627;DHT22;3349;49.830;8.748;2023-11-19T03:50:32;9.60;99.90
6627;DHT22;3349;49.830;8.748;2023-11-19T03:53:00;9.60;99.90
6627;DHT22;3349;49.830;8.748;2023-11-19T03:55:29;9.60;99.90
6627;DHT22;3349;49.830;8.748;2023-11-19T03:57:56;9.70;99.90
6627;DHT22;3349;49.830;8.748;2023-11-19T04:00:23;9.60;99.90
6627;DHT22;3349;49.830;8.748;2023-11-19T04:02:50;9.70;99.90
6627;DHT22;3349;49.830;8.748;2023-11-19T04:05:16;9.70;99.90
6627;DHT22;3349;49.830;8.748;2023-11-19T04:07:44;9.70;99.90
6627;DHT22;3349;49.830;8.748;2023-11-19T04:10:11;9.70;99.90
6627;DHT22;3349;49.830;8.748;2023-11-19T04:12:38;9.70;99.90
6627;DHT22;3349;49.830;8.748;2023-11-19T04:15:06;9.70;99.90
6627;DHT22;3349;49.830;8.748;2023-11-19T04:17:34;9.70;99.90
6627;DHT22;3349;49.830;8.748;2023-11-19T04:20:01;9.70;99.90
6627;DHT22;3349;49.830;8.748;2023-11-19T04:22:29;9.70;99.90
6627;DHT22;3349;49.830;8.748;2023-11-19T04:24:56;9.70;99.90
6627;DHT22;3349;49.830;8.748;2023-11-19T04:27:23;9.70;99.90
6627;DHT22;3349;49.830;8.748;2023-11-19T04:29:52;9.80;99.90
6627;DHT22;3349;49.830;8.748;2023-11-19T04:32:18;9.80;99.90
6627;DHT22;3349;49.830;8.748;2023-11-19T04:34:46;9.80;99.90
6627;DHT22;3349;49.830;8.748;2023-11-19T04:37:13;9.90;99.90
6627;DHT22;3349;49.830;8.748;2023-11-19T04:39:39;9.90;99.90
6627;DHT22;3349;49.830;8.748;2023-11-19T04:42:06;9.90;99.90
6627;DHT22;3349;49.830;8.748;2023-11-19T04:44:33;10.00;99.90
6627;DHT22;3349;49.830;8.748;2023-11-19T04:47:01;10.00;99.90
6627;DHT22;3349;49.830;8.748;2023-11-19T04:49:28;10.00;99.90
6627;DHT22;3349;49.830;8.748;2023-11-19T04:51:56;10.00;99.90
6627;DHT22;3349;49.830;8.748;2023-11-19T04:54:22;10.00;99.90
6627;DHT22;3349;49.830;8.748;2023-11-19T04:56:50;10.10;99.90
6627;DHT22;3349;49.830;8.748;2023-11-19T04:59:16;10.10;99.90
6627;DHT22;3349;49.830;8.748;2023-11-19T05:01:46;10.20;99.90
6627;DHT22;3349;49.830;8.748;2023-11-19T05:04:14;10.20;99.90
6627;DHT22;3349;49.830;8.748;2023-11-19T05:06:41;10.20;99.90
6627;DHT22;3349;49.830;8.748;2023-11-19T05:09:08;10.20;99.90
6627;DHT22;3349;49.830;8.748;2023-11-19T05:11:37;10.30;99.90
6627;DHT22;3349;49.830;8.748;2023-11-19T05:14:05;10.30;99.90
6627;DHT22;3349;49.830;8.748;2023-11-19T05:16:32;10.30;99.90
6627;DHT22;3349;49.830;8.748;2023-11-19T05:18:59;10.40;99.90
6627;DHT22;3349;49.830;8.748;2023-11-19T05:21:27;10.40;99.90
6627;DHT22;3349;49.830;8.748;2023-11-19T05:23:53;10.40;99.90
6627;DHT22;3349;49.830;8.748;2023-11-19T05:26:21;10.40;99.90
6627;DHT22;3349;49.830;8.748;2023-11-19T05:28:48;10.40;99.90
6627;DHT22;3349;49.830;8.748;2023-11-19T05:31:17;10.40;99.90
6627;DHT22;3349;49.830;8.748;2023-11-19T05:33:44;10.50;99.90
6627;DHT22;3349;49.830;8.748;2023-11-19T05:36:11;10.50;99.90
6627;DHT22;3349;49.830;8.748;2023-11-19T05:38:40;10.60;99.90
6627;DHT22;3349;49.830;8.748;2023-11-19T05:41:07;10.60;99.90
6627;DHT22;3349;49.830;8.748;2023-11-19T05:43:34;10.70;99.90
6627;DHT22;3349;49.830;8.748;2023-11-19T05:46:01;10.60;99.90
6627;DHT22;3349;49.830;8.748;2023-11-19T05:48:27;10.70;99.90
6627;DHT22;3349;49.830;8.748;2023-11-19T05:50:54;10.70;99.90
6627;DHT22;3349;49.830;8.748;2023-11-19T05:53:21;10.70;99.90
6627;DHT22;3349;49.830;8.748;2023-11-19T05:55:49;10.80;99.90
6627;DHT22;3349;49.830;8.748;2023-11-19T05:58:23;10.80;99.90
6627;DHT22;3349;49.830;8.748;2023-11-19T06:00:51;10.80;99.90
6627;DHT22;3349;49.830;8.748;2023-11-19T06:03:18;10.90;99.90
6627;DHT22;3349;49.830;8.748;2023-11-19T06:05:44;10.90;99.90
6627;DHT22;3349;49.830;8.748;2023-11-19T06:08:11;10.90;99.90
6627;DHT22;3349;49.830;8.748;2023-11-19T06:10:40;10.90;99.90
6627;DHT22;3349;49.830;8.748;2023-11-19T06:13:08;10.90;99.90
6627;DHT22;3349;49.830;8.748;2023-11-19T06:15:36;10.90;99.90
6627;DHT22;3349;49.830;8.748;2023-11-19T06:18:02;10.90;99.90
6627;DHT22;3349;49.830;8.748;2023-11-19T06:20:29;10.90;99.90
6627;DHT22;3349;49.830;8.748;2023-11-19T06:22:57;11.00;99.90
6627;DHT22;3349;49.830;8.748;2023-11-19T06:25:23;10.90;99.90
6627;DHT22;3349;49.830;8.748;2023-11-19T06:27:51;11.00;99.90
6627;DHT22;3349;49.830;8.748;2023-11-19T06:30:19;11.00;99.90
6627;DHT22;3349;49.830;8.748;2023-11-19T06:32:46;11.00;99.90
6627;DHT22;3349;49.830;8.748;2023-11-19T06:35:13;11.00;99.90
6627;DHT22;3349;49.830;8.748;2023-11-19T06:37:41;11.00;99.90
6627;DHT22;3349;49.830;8.748;2023-11-19T06:40:08;11.00;99.90
6627;DHT22;3349;49.830;8.748;2023-11-19T06:42:35;11.10;99.90
6627;DHT22;3349;49.830;8.748;2023-11-19T06:45:02;11.10;99.90
6627;DHT22;3349;49.830;8.748;2023-11-19T06:47:30;11.10;99.90
6627;DHT22;3349;49.830;8.748;2023-11-19T06:49:57;11.10;99.90
6627;DHT22;3349;49.830;8.748;2023-11-19T06:52:24;11.10;99.90
6627;DHT22;3349;49.830;8.748;2023-11-19T06:54:51;11.00;99.90
6627;DHT22;3349;49.830;8.748;2023-11-19T06:57:18;11.10;99.90
6627;DHT22;3349;49.830;8.748;2023-11-19T06:59:45;11.10;99.90
6627;DHT22;3349;49.830;8.748;2023-11-19T07:02:12;11.20;99.90
6627;DHT22;3349;49.830;8.748;2023-11-19T07:04:41;11.20;99.90
6627;DHT22;3349;49.830;8.748;2023-11-19T07:07:08;11.20;99.90
6627;DHT22;3349;49.830;8.748;2023-11-19T07:09:35;11.30;99.90
6627;DHT22;3349;49.830;8.748;2023-11-19T07:12:03;11.30;99.90
6627;DHT22;3349;49.830;8.748;2023-11-19T07:14:30;11.30;99.90
6627;DHT22;3349;49.830;8.748;2023-11-19T07:16:57;11.30;99.90
6627;DHT22;3349;49.830;8.748;2023-11-19T07:19:23;11.30;99.90
6627;DHT22;3349;49.830;8.748;2023-11-19T07:21:51;11.30;99.90
6627;DHT22;3349;49.830;8.748;2023-11-19T07:24:19;11.40;99.90
6627;DHT22;3349;49.830;8.748;2023-11-19T07:26:47;11.40;99.90
6627;DHT22;3349;49.830;8.748;2023-11-19T07:29:14;11.30;99.90
6627;DHT22;3349;49.830;8.748;2023-11-19T07:31:41;11.30;99.90
6627;DHT22;3349;49.830;8.748;2023-11-19T07:34:09;11.20;99.90
6627;DHT22;3349;49.830;8.748;2023-11-19T07:36:37;11.20;99.90
6627;DHT22;3349;49.830;8.748;2023-11-19T07:39:05;11.20;99.90
6627;DHT22;3349;49.830;8.748;2023-11-19T07:41:32;11.20;99.90
6627;DHT22;3349;49.830;8.748;2023-11-19T07:43:58;11.30;99.90
6627;DHT22;3349;49.830;8.748;2023-11-19T07:46:25;11.30;99.90
6627;DHT22;3349;49.830;8.748;2023-11-19T07:48:52;11.30;99.90
6627;DHT22;3349;49.830;8.748;2023-11-19T07:51:19;11.30;99.90
6627;DHT22;3349;49.830;8.748;2023-11-19T07:53:46;11.20;99.90
6627;DHT22;3349;49.830;8.748;2023-11-19T07:56:14;11.30;99.90
6627;DHT22;3349;49.830;8.748;2023-11-19T07:58:41;11.20;99.90
6627;DHT22;3349;49.830;8.748;2023-11-19T08:01:07;11.20;99.90
6627;DHT22;3349;49.830;8.748;2023-11-19T08:03:34;11.30;99.90
6627;DHT22;3349;49.830;8.748;2023-11-19T08:06:03;11.30;99.90
6627;DHT22;3349;49.830;8.748;2023-11-19T08:08:30;11.40;99.90
6627;DHT22;3349;49.830;8.748;2023-11-19T08:10:58;11.30;99.90
6627;DHT22;3349;49.830;8.748;2023-11-19T08:13:26;11.40;99.90
6627;DHT22;3349;49.830;8.748;2023-11-19T08:15:52;11.30;99.90
6627;DHT22;3349;49.830;8.748;2023-11-19T08:18:19;11.40;99.90
6627;DHT22;3349;49.830;8.748;2023-11-19T08:20:46;11.40;99.90
6627;DHT22;3349;49.830;8.748;2023-11-19T08:23:18;11.30;99.90
6627;DHT22;3349;49.830;8.748;2023-11-19T08:25:44;11.40;99.90
6627;DHT22;3349;49.830;8.748;2023-11-19T08:28:11;11.40;99.90
6627;DHT22;3349;49.830;8.748;2023-11-19T08:30:39;11.40;99.90
6627;DHT22;3349;49.830;8.748;2023-11-19T08:33:06;11.40;99.90
6627;DHT22;3349;49.830;8.748;2023-11-19T08:35:33;11.40;99.90
6627;DHT22;3349;49.830;8.748;2023-11-19T08:37:59;11.40;99.90
6627;DHT22;3349;49.830;8.748;2023-11-19T08:40:27;11.50;99.90
6627;DHT22;3349;49.830;8.748;2023-11-19T08:42:53;11.50;99.90
6627;DHT22;3349;49.830;8.748;2023-11-19T08:45:20;11.60;99.90
6627;DHT22;3349;49.830;8.748;2023-11-19T08:47:48;11.70;99.90
6627;DHT22;3349;49.830;8.748;2023-11-19T08:50:15;11.90;99.90
6627;DHT22;3349;49.830;8.748;2023-11-19T08:52:42;11.90;99.90
6627;DHT22;3349;49.830;8.748;2023-11-19T08:55:09;11.90;99.90
6627;DHT22;3349;49.830;8.748;2023-11-19T08:57:37;12.00;99.90
6627;DHT22;3349;49.830;8.748;2023-11-19T09:00:04;11.90;99.90
6627;DHT22;3349;49.830;8.748;2023-11-19T09:02:33;11.90;99.90
6627;DHT22;3349;49.830;8.748;2023-11-19T09:05:01;11.90;99.90
6627;DHT22;3349;49.830;8.748;2023-11-19T09:07:28;11.90;99.90
6627;DHT22;3349;49.830;8.748;2023-11-19T09:09:55;11.90;99.90
6627;DHT22;3349;49.830;8.748;2023-11-19T09:12:21;11.90;99.90
6627;DHT22;3349;49.830;8.748;2023-11-19T09:14:48;11.90;99.90
6627;DHT22;3349;49.830;8.748;2023-11-19T09:17:15;11.90;99.90
6627;DHT22;3349;49.830;8.748;2023-11-19T09:19:43;12.00;99.90
6627;DHT22;3349;49.830;8.748;2023-11-19T09:22:11;12.00;99.90
6627;DHT22;3349;49.830;8.748;2023-11-19T09:24:38;11.90;99.90
6627;DHT22;3349;49.830;8.748;2023-11-19T09:27:05;11.90;99.90
6627;DHT22;3349;49.830;8.748;2023-11-19T09:29:32;11.90;99.90
6627;DHT22;3349;49.830;8.748;2023-11-19T09:31:59;11.90;99.90
6627;DHT22;3349;49.830;8.748;2023-11-19T09:34:25;11.80;99.90
6627;DHT22;3349;49.830;8.748;2023-11-19T09:36:53;11.80;99.90
6627;DHT22;3349;49.830;8.748;2023-11-19T09:39:21;11.70;99.90
6627;DHT22;3349;49.830;8.748;2023-11-19T09:41:48;11.80;99.90
6627;DHT22;3349;49.830;8.748;2023-11-19T09:44:15;11.80;99.90
6627;DHT22;3349;49.830;8.748;2023-11-19T09:46:43;11.80;99.90
6627;DHT22;3349;49.830;8.748;2023-11-19T09:49:11;11.70;99.90
6627;DHT22;3349;49.830;8.748;2023-11-19T09:51:39;11.70;99.90
6627;DHT22;3349;49.830;8.748;2023-11-19T09:54:06;11.80;99.90
6627;DHT22;3349;49.830;8.748;2023-11-19T09:56:36;11.70;99.90
6627;DHT22;3349;49.830;8.748;2023-11-19T09:59:04;11.70;99.90
6627;DHT22;3349;49.830;8.748;2023-11-19T10:01:31;11.70;99.90
6627;DHT22;3349;49.830;8.748;2023-11-19T10:03:59;11.80;99.90
6627;DHT22;3349;49.830;8.748;2023-11-19T10:06:26;11.90;99.90
6627;DHT22;3349;49.830;8.748;2023-11-19T10:08:53;11.90;99.90
6627;DHT22;3349;49.830;8.748;2023-11-19T10:11:21;11.90;99.90
6627;DHT22;3349;49.830;8.748;2023-11-19T10:13:49;11.80;99.90
6627;DHT22;3349;49.830;8.748;2023-11-19T10:16:15;11.80;99.90
6627;DHT22;3349;49.830;8.748;2023-11-19T10:18:45;11.80;99.90
6627;DHT22;3349;49.830;8.748;2023-11-19T10:21:12;11.80;99.90
6627;DHT22;3349;49.830;8.748;2023-11-19T10:23:49;11.90;99.90
6627;DHT22;3349;49.830;8.748;2023-11-19T10:26:17;12.00;99.90
6627;DHT22;3349;49.830;8.748;2023-11-19T10:28:43;12.10;99.90
6627;DHT22;3349;49.830;8.748;2023-11-19T10:31:13;12.10;99.90
6627;DHT22;3349;49.830;8.748;2023-11-19T10:33:40;12.30;99.90
6627;DHT22;3349;49.830;8.748;2023-11-19T10:36:08;12.50;99.90
6627;DHT22;3349;49.830;8.748;2023-11-19T10:38:35;12.70;99.90
6627;DHT22;3349;49.830;8.748;2023-11-19T10:41:02;12.90;99.90
6627;DHT22;3349;49.830;8.748;2023-11-19T10:43:29;13.10;99.90
6627;DHT22;3349;49.830;8.748;2023-11-19T10:46:09;13.20;99.90
6627;DHT22;3349;49.830;8.748;2023-11-19T10:48:38;13.20;99.90
6627;DHT22;3349;49.830;8.748;2023-11-19T10:51:06;13.10;99.90
6627;DHT22;3349;49.830;8.748;2023-11-19T10:53:36;13.00;99.90
6627;DHT22;3349;49.830;8.748;2023-11-19T10:56:06;12.90;99.90
6627;DHT22;3349;49.830;8.748;2023-11-19T10:58:37;12.90;99.90
6627;DHT22;3349;49.830;8.748;2023-11-19T11:01:11;12.90;99.90
6627;DHT22;3349;49.830;8.748;2023-11-19T11:03:41;12.90;99.90
6627;DHT22;3349;49.830;8.748;2023-11-19T11:06:09;13.00;99.90
6627;DHT22;3349;49.830;8.748;2023-11-19T11:08:37;13.10;99.90
6627;DHT22;3349;49.830;8.748;2023-11-19T11:11:05;13.10;99.90
6627;DHT22;3349;49.830;8.748;2023-11-19T11:13:33;13.00;99.90
6627;DHT22;3349;49.830;8.748;2023-11-19T11:16:00;13.00;99.90
6627;DHT22;3349;49.830;8.748;2023-11-19T11:18:27;13.00;99.90
6627;DHT22;3349;49.830;8.748;2023-11-19T11:21:00;13.10;99.90
6627;DHT22;3349;49.830;8.748;2023-11-19T11:23:52;13.00;99.90
6627;DHT22;3349;49.830;8.748;2023-11-19T11:26:40;13.00;99.90
6627;DHT22;3349;49.830;8.748;2023-11-19T11:29:14;13.10;99.90
6627;DHT22;3349;49.830;8.748;2023-11-19T11:31:51;13.30;99.90
6627;DHT22;3349;49.830;8.748;2023-11-19T11:34:47;13.40;99.90
6627;DHT22;3349;49.830;8.748;2023-11-19T11:37:24;13.70;99.90
6627;DHT22;3349;49.830;8.748;2023-11-19T11:39:52;14.20;99.90
6627;DHT22;3349;49.830;8.748;2023-11-19T11:42:35;14.80;99.90
6627;DHT22;3349;49.830;8.748;2023-11-19T11:45:04;15.60;96.40
6627;DHT22;3349;49.830;8.748;2023-11-19T11:48:08;15.90;93.10
6627;DHT22;3349;49.830;8.748;2023-11-19T11:50:37;15.50;90.70
6627;DHT22;3349;49.830;8.748;2023-11-19T11:53:17;15.00;92.10
6627;DHT22;3349;49.830;8.748;2023-11-19T11:55:55;14.60;94.60
6627;DHT22;3349;49.830;8.748;2023-11-19T11:58:30;14.30;96.60
6627;DHT22;3349;49.830;8.748;2023-11-19T12:00:58;14.10;97.90
6627;DHT22;3349;49.830;8.748;2023-11-19T12:03:27;14.00;98.70
6627;DHT22;3349;49.830;8.748;2023-11-19T12:05:54;13.90;99.90
6627;DHT22;3349;49.830;8.748;2023-11-19T12:08:26;13.80;98.00
6627;DHT22;3349;49.830;8.748;2023-11-19T12:10:55;13.80;95.80
6627;DHT22;3349;49.830;8.748;2023-11-19T12:13:23;13.90;94.30
6627;DHT22;3349;49.830;8.748;2023-11-19T12:16:09;14.30;92.60
6627;DHT22;3349;49.830;8.748;2023-11-19T12:18:38;14.70;87.00
6627;DHT22;3349;49.830;8.748;2023-11-19T12:21:07;15.20;79.70
6627;DHT22;3349;49.830;8.748;2023-11-19T12:23:44;15.60;76.40
6627;DHT22;3349;49.830;8.748;2023-11-19T12:26:38;16.20;71.30
6627;DHT22;3349;49.830;8.748;2023-11-19T12:29:05;15.80;69.30
6627;DHT22;3349;49.830;8.748;2023-11-19T12:31:32;16.00;68.10
6627;DHT22;3349;49.830;8.748;2023-11-19T12:34:05;15.90;70.10
6627;DHT22;3349;49.830;8.748;2023-11-19T12:36:32;16.80;69.80
6627;DHT22;3349;49.830;8.748;2023-11-19T12:39:01;18.10;60.10
6627;DHT22;3349;49.830;8.748;2023-11-19T12:41:29;18.30;59.90
6627;DHT22;3349;49.830;8.748;2023-11-19T12:44:09;18.10;60.70
6627;DHT22;3349;49.830;8.748;2023-11-19T12:46:36;18.10;58.30
6627;DHT22;3349;49.830;8.748;2023-11-19T12:49:03;17.30;59.20
6627;DHT22;3349;49.830;8.748;2023-11-19T12:51:31;16.60;58.20
6627;DHT22;3349;49.830;8.748;2023-11-19T12:53:58;16.20;58.10
6627;DHT22;3349;49.830;8.748;2023-11-19T12:56:26;15.80;57.80
6627;DHT22;3349;49.830;8.748;2023-11-19T12:58:52;15.90;57.40
6627;DHT22;3349;49.830;8.748;2023-11-19T13:01:20;16.20;57.90
6627;DHT22;3349;49.830;8.748;2023-11-19T13:03:47;16.10;57.00
6627;DHT22;3349;49.830;8.748;2023-11-19T13:06:16;15.80;57.70
6627;DHT22;3349;49.830;8.748;2023-11-19T13:08:47;15.60;58.60
6627;DHT22;3349;49.830;8.748;2023-11-19T13:11:31;15.10;58.70
6627;DHT22;3349;49.830;8.748;2023-11-19T13:13:59;14.80;60.50
6627;DHT22;3349;49.830;8.748;2023-11-19T13:16:27;14.60;61.50
6627;DHT22;3349;49.830;8.748;2023-11-19T13:18:54;14.40;64.60
6627;DHT22;3349;49.830;8.748;2023-11-19T13:21:22;14.20;66.40
6627;DHT22;3349;49.830;8.748;2023-11-19T13:23:49;14.20;66.60
6627;DHT22;3349;49.830;8.748;2023-11-19T13:26:16;14.30;66.40
6627;DHT22;3349;49.830;8.748;2023-11-19T13:28:44;14.40;65.70
6627;DHT22;3349;49.830;8.748;2023-11-19T13:31:11;14.50;66.50
6627;DHT22;3349;49.830;8.748;2023-11-19T13:33:38;14.60;64.80
6627;DHT22;3349;49.830;8.748;2023-11-19T13:36:06;14.60;64.30
6627;DHT22;3349;49.830;8.748;2023-11-19T13:38:33;14.50;65.20
6627;DHT22;3349;49.830;8.748;2023-11-19T13:41:00;14.50;65.80
6627;DHT22;3349;49.830;8.748;2023-11-19T13:43:27;14.40;65.40
6627;DHT22;3349;49.830;8.748;2023-11-19T13:45:56;14.20;66.60
6627;DHT22;3349;49.830;8.748;2023-11-19T13:48:24;14.10;68.20
6627;DHT22;3349;49.830;8.748;2023-11-19T13:50:52;13.90;68.90
6627;DHT22;3349;49.830;8.748;2023-11-19T13:53:19;13.90;69.90
6627;DHT22;3349;49.830;8.748;2023-11-19T13:55:45;13.80;71.10
6627;DHT22;3349;49.830;8.748;2023-11-19T13:58:12;13.70;72.90
6627;DHT22;3349;49.830;8.748;2023-11-19T14:00:39;13.60;73.00
6627;DHT22;3349;49.830;8.748;2023-11-19T14:03:08;13.50;74.70
6627;DHT22;3349;49.830;8.748;2023-11-19T14:05:36;13.40;76.90
6627;DHT22;3349;49.830;8.748;2023-11-19T14:08:02;13.40;77.50
6627;DHT22;3349;49.830;8.748;2023-11-19T14:10:36;13.30;77.80
6627;DHT22;3349;49.830;8.748;2023-11-19T14:13:04;13.30;78.60
6627;DHT22;3349;49.830;8.748;2023-11-19T14:15:31;13.20;79.40
6627;DHT22;3349;49.830;8.748;2023-11-19T14:17:57;13.20;79.90
6627;DHT22;3349;49.830;8.748;2023-11-19T14:20:25;13.20;81.30
6627;DHT22;3349;49.830;8.748;2023-11-19T14:22:52;13.20;81.20
6627;DHT22;3349;49.830;8.748;2023-11-19T14:25:19;13.30;80.30
6627;DHT22;3349;49.830;8.748;2023-11-19T14:27:48;13.30;79.50
6627;DHT22;3349;49.830;8.748;2023-11-19T14:30:14;13.40;77.50
6627;DHT22;3349;49.830;8.748;2023-11-19T14:32:42;13.40;77.50
6627;DHT22;3349;49.830;8.748;2023-11-19T14:35:11;13.40;78.90
6627;DHT22;3349;49.830;8.748;2023-11-19T14:37:39;13.30;79.60
6627;DHT22;3349;49.830;8.748;2023-11-19T14:40:06;13.30;79.60
6627;DHT22;3349;49.830;8.748;2023-11-19T14:42:35;13.30;79.50
6627;DHT22;3349;49.830;8.748;2023-11-19T14:45:02;13.20;79.80
6627;DHT22;3349;49.830;8.748;2023-11-19T14:47:30;13.30;77.80
6627;DHT22;3349;49.830;8.748;2023-11-19T14:49:56;13.30;78.60
6627;DHT22;3349;49.830;8.748;2023-11-19T14:52:23;13.20;78.80
6627;DHT22;3349;49.830;8.748;2023-11-19T14:54:51;13.10;80.50
6627;DHT22;3349;49.830;8.748;2023-11-19T14:57:19;13.10;80.70
6627;DHT22;3349;49.830;8.748;2023-11-19T14:59:46;13.00;81.30
6627;DHT22;3349;49.830;8.748;2023-11-19T15:02:13;13.00;82.30
6627;DHT22;3349;49.830;8.748;2023-11-19T15:04:39;12.90;83.20
6627;DHT22;3349;49.830;8.748;2023-11-19T15:07:06;12.90;83.30
6627;DHT22;3349;49.830;8.748;2023-11-19T15:09:33;12.80;84.20
6627;DHT22;3349;49.830;8.748;2023-11-19T15:12:04;12.80;83.50
6627;DHT22;3349;49.830;8.748;2023-11-19T15:14:30;12.70;83.90
6627;DHT22;3349;49.830;8.748;2023-11-19T15:16:57;12.60;83.90
6627;DHT22;3349;49.830;8.748;2023-11-19T15:19:24;12.60;80.00
6627;DHT22;3349;49.830;8.748;2023-11-19T15:21:50;12.60;77.60
6627;DHT22;3349;49.830;8.748;2023-11-19T15:24:17;12.50;76.60
6627;DHT22;3349;49.830;8.748;2023-11-19T15:26:44;12.50;76.60
6627;DHT22;3349;49.830;8.748;2023-11-19T15:29:12;12.50;76.60
6627;DHT22;3349;49.830;8.748;2023-11-19T15:31:39;12.40;76.40
6627;DHT22;3349;49.830;8.748;2023-11-19T15:34:06;12.40;76.40
6627;DHT22;3349;49.830;8.748;2023-11-19T15:36:32;12.30;77.50
6627;DHT22;3349;49.830;8.748;2023-11-19T15:39:01;12.30;78.80
6627;DHT22;3349;49.830;8.748;2023-11-19T15:41:27;12.20;80.10
6627;DHT22;3349;49.830;8.748;2023-11-19T15:43:55;12.10;80.40
6627;DHT22;3349;49.830;8.748;2023-11-19T15:46:23;12.20;82.70
6627;DHT22;3349;49.830;8.748;2023-11-19T15:48:50;12.20;84.40
6627;DHT22;3349;49.830;8.748;2023-11-19T15:51:16;12.10;85.00
6627;DHT22;3349;49.830;8.748;2023-11-19T16:00:27;11.70;89.10
6627;DHT22;3349;49.830;8.748;2023-11-19T16:02:55;11.50;90.90
6627;DHT22;3349;49.830;8.748;2023-11-19T16:05:22;11.50;92.00
6627;DHT22;3349;49.830;8.748;2023-11-19T16:07:49;11.50;92.20
6627;DHT22;3349;49.830;8.748;2023-11-19T16:10:16;11.50;91.90
6627;DHT22;3349;49.830;8.748;2023-11-19T16:12:45;11.50;91.50
6627;DHT22;3349;49.830;8.748;2023-11-19T16:15:12;11.40;90.90
6627;DHT22;3349;49.830;8.748;2023-11-19T16:17:40;11.40;90.50
6627;DHT22;3349;49.830;8.748;2023-11-19T16:20:09;11.40;90.80